Time,TemperatureF,DewpointF,PressureIn,WindDirection,WindDirectionDegrees,WindSpeedMPH,WindSpeedGustMPH,Humidity,HourlyPrecipIn,Conditions,Clouds,dailyrainin,SoftwareType,DateUTC
2013-05-03 00:00:00,63.4,42.0,30.14,NE,38,7.0,-999.0,45,-99.99,,,0.00,weatherlink.com 1.10,2013-05-03 07:00:00,
2013-05-03 00:15:00,63.2,41.0,30.14,NE,55,5.0,-999.0,45,-99.99,,,0.00,weatherlink.com 1.10,2013-05-03 07:15:00,
2013-05-03 00:30:00,62.9,42.0,30.14,NNE,32,11.0,-999.0,46,-99.99,,,0.00,weatherlink.com 1.10,2013-05-03 07:30:00,
2013-05-03 00:45:00,62.3,42.0,30.14,NNE,30,7.0,-999.0,47,-99.99,,,0.00,weatherlink.com 1.10,2013-05-03 07:45:00,
2013-05-03 01:00:00,62.0,41.0,30.14,NE,43,5.0,-999.0,47,-99.99,,,0.00,weatherlink.com 1.10,2013-05-03 08:00:00,
2013-05-03 01:15:00,61.6,41.0,30.14,NE,46,4.0,-999.0,47,-99.99,,,0.00,weatherlink.com 1.10,2013-05-03 08:15:00,
2013-05-03 01:30:00,61.3,41.0,30.14,NE,44,7.0,-999.0,48,-99.99,,,0.00,weatherlink.com 1.10,2013-05-03 08:30:00,
2013-05-03 01:45:00,60.9,41.0,30.15,NNE,31,6.0,-999.0,48,-99.99,,,0.00,weatherlink.com 1.10,2013-05-03 08:45:00,
2013-05-03 02:00:00,60.4,41.0,30.14,NNE,27,6.0,-999.0,49,-99.99,,,0.00,weatherlink.com 1.10,2013-05-03 09:00:00,
2013-05-03 02:15:00,59.8,40.0,30.14,NE,42,5.0,-999.0,49,-99.99,,,0.00,weatherlink.com 1.10,2013-05-03 09:15:00,
2013-05-03 02:30:00,59.3,41.0,30.14,NE,34,0.0,-999.0,51,-99.99,,,0.00,weatherlink.com 1.10,2013-05-03 09:30:00,
2013-05-03 02:45:00,58.4,40.0,30.14,NE,35,1.0,-999.0,51,-99.99,,,0.00,weatherlink.com 1.10,2013-05-03 09:45:00,
2013-05-03 03:00:00,58.7,40.0,30.14,NNE,32,3.0,-999.0,51,-99.99,,,0.00,weatherlink.com 1.10,2013-05-03 10:00:00,
2013-05-03 03:15:00,58.1,40.0,30.14,NNE,28,1.0,-999.0,52,-99.99,,,0.00,weatherlink.com 1.10,2013-05-03 10:15:00,
2013-05-03 03:30:00,58.0,39.0,30.14,NE,49,5.0,-999.0,50,-99.99,,,0.00,weatherlink.com 1.10,2013-05-03 10:30:00,
2013-05-03 03:45:00,57.0,39.0,30.14,North,5,0.0,-999.0,51,-99.99,,,0.00,weatherlink.com 1.10,2013-05-03 10:45:00,
2013-05-03 04:00:00,56.6,38.0,30.14,NNE,22,0.0,-999.0,51,-99.99,,,0.00,weatherlink.com 1.10,2013-05-03 11:00:00,
2013-05-03 04:15:00,56.0,36.0,30.14,NE,44,5.0,-999.0,47,-99.99,,,0.00,weatherlink.com 1.10,2013-05-03 11:15:00,
2013-05-03 04:30:00,56.2,35.0,30.14,NNE,24,0.0,-999.0,46,-99.99,,,0.00,weatherlink.com 1.10,2013-05-03 11:30:00,
2013-05-03 04:45:00,55.9,35.0,30.14,NE,40,1.0,-999.0,46,-99.99,,,0.00,weatherlink.com 1.10,2013-05-03 11:45:00,
2013-05-03 05:00:00,54.8,34.0,30.14,NNE,30,1.0,-999.0,45,-99.99,,,0.00,weatherlink.com 1.10,2013-05-03 12:00:00,
2013-05-03 05:15:00,54.7,34.0,30.14,NE,53,0.0,-999.0,46,-99.99,,,0.00,weatherlink.com 1.10,2013-05-03 12:15:00,
2013-05-03 05:30:00,54.8,33.0,30.14,NNE,25,6.0,-999.0,44,-99.99,,,0.00,weatherlink.com 1.10,2013-05-03 12:30:00,
2013-05-03 05:45:00,55.1,33.0,30.14,North,355,5.0,-999.0,44,-99.99,,,0.00,weatherlink.com 1.10,2013-05-03 12:45:00,
2013-05-03 06:00:00,54.7,33.0,30.14,NNE,26,3.0,-999.0,44,-99.99,,,0.00,weatherlink.com 1.10,2013-05-03 13:00:00,
2013-05-03 06:15:00,54.7,33.0,30.14,ENE,66,7.0,-999.0,44,-99.99,,,0.00,weatherlink.com 1.10,2013-05-03 13:15:00,
2013-05-03 06:30:00,55.1,33.0,30.15,NE,40,3.0,-999.0,43,-99.99,,,0.00,weatherlink.com 1.10,2013-05-03 13:30:00,
2013-05-03 06:45:00,55.0,33.0,30.15,NE,51,4.0,-999.0,43,-99.99,,,0.00,weatherlink.com 1.10,2013-05-03 13:45:00,
2013-05-03 07:00:00,54.8,34.0,30.15,NE,36,2.0,-999.0,46,-99.99,,,0.00,weatherlink.com 1.10,2013-05-03 14:00:00,
2013-05-03 07:15:00,53.6,38.0,30.15,NNE,16,1.0,-999.0,55,-99.99,,,0.00,weatherlink.com 1.10,2013-05-03 14:15:00,
2013-05-03 07:30:00,53.3,37.0,30.15,East,86,0.0,-999.0,55,-99.99,,,0.00,weatherlink.com 1.10,2013-05-03 14:30:00,
2013-05-03 07:45:00,54.5,39.0,30.16,NE,40,0.0,-999.0,57,-99.99,,,0.00,weatherlink.com 1.10,2013-05-03 14:45:00,
2013-05-03 08:00:00,55.9,38.0,30.16,SE,131,0.0,-999.0,52,-99.99,,,0.00,weatherlink.com 1.10,2013-05-03 15:00:00,
2013-05-03 08:15:00,56.2,39.0,30.16,ENE,77,0.0,-999.0,53,-99.99,,,0.00,weatherlink.com 1.10,2013-05-03 15:15:00,
2013-05-03 08:30:00,56.6,41.0,30.16,ENE,76,0.0,-999.0,56,-99.99,,,0.00,weatherlink.com 1.10,2013-05-03 15:30:00,
2013-05-03 08:45:00,57.3,38.0,30.15,NE,44,1.0,-999.0,49,-99.99,,,0.00,weatherlink.com 1.10,2013-05-03 15:45:00,
2013-05-03 09:00:00,58.1,37.0,30.15,North,5,1.0,-999.0,46,-99.99,,,0.00,weatherlink.com 1.10,2013-05-03 16:00:00,
2013-05-03 09:15:00,59.8,38.0,30.15,NE,39,8.0,-999.0,44,-99.99,,,0.00,weatherlink.com 1.10,2013-05-03 16:15:00,
2013-05-03 09:30:00,59.8,39.0,30.15,NNE,19,2.0,-999.0,46,-99.99,,,0.00,weatherlink.com 1.10,2013-05-03 16:30:00,
2013-05-03 09:45:00,60.5,44.0,30.15,NNE,29,1.0,-999.0,55,-99.99,,,0.00,weatherlink.com 1.10,2013-05-03 16:45:00,
2013-05-03 10:00:00,60.9,40.0,30.14,ENE,78,1.0,-999.0,46,-99.99,,,0.00,weatherlink.com 1.10,2013-05-03 17:00:00,
2013-05-03 10:15:00,61.8,40.0,30.14,NE,34,5.0,-999.0,45,-99.99,,,0.00,weatherlink.com 1.10,2013-05-03 17:15:00,
2013-05-03 10:30:00,62.3,44.0,30.14,NE,45,7.0,-999.0,52,-99.99,,,0.00,weatherlink.com 1.10,2013-05-03 17:30:00,
2013-05-03 10:45:00,62.6,42.0,30.14,NE,34,9.0,-999.0,47,-99.99,,,0.00,weatherlink.com 1.10,2013-05-03 17:45:00,
2013-05-03 11:00:00,62.7,43.0,30.13,NNE,30,10.0,-999.0,48,-99.99,,,0.00,weatherlink.com 1.10,2013-05-03 18:00:00,
2013-05-03 11:15:00,63.7,43.0,30.14,NNE,15,6.0,-999.0,47,-99.99,,,0.00,weatherlink.com 1.10,2013-05-03 18:15:00,
2013-05-03 11:30:00,64.5,44.0,30.13,NNE,31,5.0,-999.0,47,-99.99,,,0.00,weatherlink.com 1.10,2013-05-03 18:30:00,
2013-05-03 11:45:00,65.2,43.0,30.13,NE,40,6.0,-999.0,45,-99.99,,,0.00,weatherlink.com 1.10,2013-05-03 18:45:00,
2013-05-03 12:00:00,66.3,42.0,30.12,NE,41,3.0,-999.0,42,-99.99,,,0.00,weatherlink.com 1.10,2013-05-03 19:00:00,
2013-05-03 12:15:00,65.8,45.0,30.12,NNE,27,7.0,-999.0,47,-99.99,,,0.00,weatherlink.com 1.10,2013-05-03 19:15:00,
2013-05-03 12:30:00,67.1,44.0,30.12,NNE,30,3.0,-999.0,43,-99.99,,,0.00,weatherlink.com 1.10,2013-05-03 19:30:00,
2013-05-03 12:45:00,67.9,47.0,30.11,NE,42,6.0,-999.0,48,-99.99,,,0.00,weatherlink.com 1.10,2013-05-03 19:45:00,
2013-05-03 13:00:00,68.6,47.0,30.11,NE,44,4.0,-999.0,46,-99.99,,,0.00,weatherlink.com 1.10,2013-05-03 20:00:00,
2013-05-03 13:15:00,69.4,47.0,30.10,NNE,26,6.0,-999.0,45,-99.99,,,0.00,weatherlink.com 1.10,2013-05-03 20:15:00,
2013-05-03 13:30:00,69.8,49.0,30.10,NE,56,4.0,-999.0,48,-99.99,,,0.00,weatherlink.com 1.10,2013-05-03 20:30:00,
2013-05-03 13:45:00,70.3,47.0,30.09,NE,36,9.0,-999.0,44,-99.99,,,0.00,weatherlink.com 1.10,2013-05-03 20:45:00,
2013-05-03 14:15:00,71.1,47.0,30.08,NNE,17,4.0,-999.0,43,-99.99,,,0.00,weatherlink.com 1.10,2013-05-03 21:15:00,
2013-05-03 14:30:00,71.3,44.0,30.07,NE,44,3.0,-999.0,37,-99.99,,,0.00,weatherlink.com 1.10,2013-05-03 21:30:00,
2013-05-03 14:45:00,72.1,48.0,30.07,NNE,32,5.0,-999.0,42,-99.99,,,0.00,weatherlink.com 1.10,2013-05-03 21:45:00,
2013-05-03 15:00:00,73.0,46.0,30.07,North,11,2.0,-999.0,38,-99.99,,,0.00,weatherlink.com 1.10,2013-05-03 22:00:00,
2013-05-03 15:15:00,73.5,48.0,30.06,NNE,24,3.0,-999.0,41,-99.99,,,0.00,weatherlink.com 1.10,2013-05-03 22:15:00,
2013-05-03 15:30:00,73.9,47.0,30.06,NE,38,3.0,-999.0,39,-99.99,,,0.00,weatherlink.com 1.10,2013-05-03 22:30:00,
2013-05-03 15:45:00,73.9,47.0,30.06,NNE,13,2.0,-999.0,39,-99.99,,,0.00,weatherlink.com 1.10,2013-05-03 22:45:00,
2013-05-03 16:00:00,74.6,48.0,30.04,NNE,13,5.0,-999.0,39,-99.99,,,0.00,weatherlink.com 1.10,2013-05-03 23:00:00,
2013-05-03 16:15:00,74.7,45.0,30.03,NNE,32,7.0,-999.0,35,-99.99,,,0.00,weatherlink.com 1.10,2013-05-03 23:15:00,
2013-05-03 16:29:00,74.9,47.0,30.03,NNE,30,2.0,-999.0,37,-99.99,,,0.00,weatherlink.com 1.10,2013-05-03 23:29:00,
2013-05-03 16:45:00,75.3,47.0,30.03,NE,46,6.0,-999.0,37,-99.99,,,0.00,weatherlink.com 1.10,2013-05-03 23:45:00,
2013-05-03 17:00:00,75.3,49.0,30.03,North,9,6.0,-999.0,40,-99.99,,,0.00,weatherlink.com 1.10,2013-05-04 00:00:00,
2013-05-03 17:15:00,75.4,47.0,30.02,NE,42,6.0,-999.0,36,-99.99,,,0.00,weatherlink.com 1.10,2013-05-04 00:15:00,
2013-05-03 17:30:00,75.4,46.0,30.01,NNE,22,5.0,-999.0,35,-99.99,,,0.00,weatherlink.com 1.10,2013-05-04 00:30:00,
2013-05-03 17:44:00,75.4,43.0,30.01,NNE,33,8.0,-999.0,31,-99.99,,,0.00,weatherlink.com 1.10,2013-05-04 00:44:00,
2013-05-03 17:59:00,75.6,42.0,30.01,NE,44,6.0,-999.0,30,-99.99,,,0.00,weatherlink.com 1.10,2013-05-04 00:59:00,
2013-05-03 18:15:00,75.3,43.0,30.01,NNE,12,1.0,-999.0,31,-99.99,,,0.00,weatherlink.com 1.10,2013-05-04 01:15:00,
2013-05-03 18:31:00,75.4,42.0,30.00,NE,35,4.0,-999.0,30,-99.99,,,0.00,weatherlink.com 1.10,2013-05-04 01:31:00,
2013-05-03 18:46:00,75.1,42.0,30.00,NE,39,7.0,-999.0,30,-99.99,,,0.00,weatherlink.com 1.10,2013-05-04 01:46:00,
2013-05-03 19:01:00,74.9,42.0,30.00,NNE,26,2.0,-999.0,31,-99.99,,,0.00,weatherlink.com 1.10,2013-05-04 02:01:00,
2013-05-03 19:16:00,74.6,43.0,29.99,NNE,30,1.0,-999.0,32,-99.99,,,0.00,weatherlink.com 1.10,2013-05-04 02:16:00,
2013-05-03 19:30:00,74.0,42.0,29.99,NE,52,5.0,-999.0,32,-99.99,,,0.00,weatherlink.com 1.10,2013-05-04 02:30:00,
2013-05-03 19:45:00,72.5,45.0,29.98,NNE,29,4.0,-999.0,37,-99.99,,,0.00,weatherlink.com 1.10,2013-05-04 02:45:00,
2013-05-03 20:01:00,71.3,42.0,29.98,NE,50,5.0,-999.0,35,-99.99,,,0.00,weatherlink.com 1.10,2013-05-04 03:01:00,
2013-05-03 20:16:00,71.8,41.0,29.98,NE,42,5.0,-999.0,33,-99.99,,,0.00,weatherlink.com 1.10,2013-05-04 03:16:00,
2013-05-03 20:31:00,71.5,41.0,29.99,North,360,5.0,-999.0,33,-99.99,,,0.00,weatherlink.com 1.10,2013-05-04 03:31:00,
2013-05-03 20:45:00,70.9,39.0,29.99,North,11,4.0,-999.0,31,-99.99,,,0.00,weatherlink.com 1.10,2013-05-04 03:45:00,
2013-05-03 21:00:00,70.4,37.0,29.99,NE,46,14.0,-999.0,29,-99.99,,,0.00,weatherlink.com 1.10,2013-05-04 04:00:00,
2013-05-03 21:15:00,70.1,34.0,30.00,ENE,61,10.0,-999.0,27,-99.99,,,0.00,weatherlink.com 1.10,2013-05-04 04:15:00,
2013-05-03 21:31:00,69.6,34.0,30.00,NE,47,4.0,-999.0,27,-99.99,,,0.00,weatherlink.com 1.10,2013-05-04 04:31:00,
2013-05-03 21:45:00,68.6,35.0,30.00,NE,40,10.0,-999.0,29,-99.99,,,0.00,weatherlink.com 1.10,2013-05-04 04:45:00,
2013-05-03 22:00:00,68.4,34.0,30.01,NNE,19,6.0,-999.0,28,-99.99,,,0.00,weatherlink.com 1.10,2013-05-04 05:00:00,
2013-05-03 22:14:00,68.1,34.0,30.00,NE,34,10.0,-999.0,28,-99.99,,,0.00,weatherlink.com 1.10,2013-05-04 05:14:00,
2013-05-03 22:31:00,67.4,34.0,30.00,NNE,22,11.0,-999.0,29,-99.99,,,0.00,weatherlink.com 1.10,2013-05-04 05:31:00,
2013-05-03 22:45:00,67.1,35.0,30.00,NNE,22,6.0,-999.0,31,-99.99,,,0.00,weatherlink.com 1.10,2013-05-04 05:45:00,
2013-05-03 23:00:00,66.8,38.0,30.00,NE,37,9.0,-999.0,35,-99.99,,,0.00,weatherlink.com 1.10,2013-05-04 06:00:00,
2013-05-03 23:15:00,66.8,38.0,29.99,NNE,30,11.0,-999.0,35,-99.99,,,0.00,weatherlink.com 1.10,2013-05-04 06:15:00,
2013-05-03 23:30:00,66.3,38.0,29.98,ENE,57,10.0,-999.0,35,-99.99,,,0.00,weatherlink.com 1.10,2013-05-04 06:30:00,
2013-05-03 23:45:00,65.8,37.0,29.98,NE,34,15.0,-999.0,35,-99.99,,,0.00,weatherlink.com 1.10,2013-05-04 06:45:00,